createdAt,value
2017-03-04T00:00:50.567Z,0
2017-03-04T00:01:50.555Z,0
2017-03-04T00:02:50.613Z,0
2017-03-04T00:03:50.636Z,0
2017-03-04T00:04:50.657Z,0
2017-03-04T00:05:50.689Z,0
2017-03-04T00:06:50.769Z,0
2017-03-04T00:07:50.733Z,0
2017-03-04T00:08:50.783Z,0
2017-03-04T00:09:50.799Z,0
2017-03-04T00:10:50.829Z,0
2017-03-04T00:11:50.867Z,0
2017-03-04T00:12:50.883Z,0
2017-03-04T00:13:50.912Z,0
2017-03-04T00:14:50.945Z,0
2017-03-04T00:15:50.961Z,0
2017-03-04T00:16:50.967Z,0
2017-03-04T00:17:51.020Z,0
2017-03-04T00:18:51.043Z,0
2017-03-04T00:19:51.064Z,0
2017-03-04T00:20:51.108Z,0
2017-03-04T00:21:51.119Z,0
2017-03-04T00:22:51.170Z,0
2017-03-04T00:23:51.167Z,0
2017-03-04T00:24:51.210Z,0
2017-03-04T00:25:51.240Z,0
2017-03-04T00:26:51.237Z,0
2017-03-04T00:27:51.297Z,0
2017-03-04T00:28:51.324Z,0
2017-03-04T00:29:51.348Z,0
2017-03-04T00:30:51.418Z,0
2017-03-04T00:31:51.368Z,0
2017-03-04T00:32:51.399Z,0
2017-03-04T00:33:51.447Z,0
2017-03-04T00:34:51.477Z,0
2017-03-04T00:35:51.503Z,0
2017-03-04T00:36:51.528Z,0
2017-03-04T00:37:51.540Z,0
2017-03-04T00:38:51.541Z,0
2017-03-04T00:39:51.630Z,0
2017-03-04T00:40:51.641Z,0
2017-03-04T00:41:51.694Z,0
2017-03-04T00:42:51.708Z,0
2017-03-04T00:43:51.725Z,0
2017-03-04T00:44:51.746Z,0
2017-03-04T00:45:51.788Z,0
2017-03-04T00:46:51.792Z,0
2017-03-04T00:47:51.832Z,0
2017-03-04T00:48:51.858Z,0
2017-03-04T00:49:51.875Z,0
2017-03-04T00:50:51.929Z,0
2017-03-04T00:51:51.927Z,0
2017-03-04T00:52:51.969Z,0
2017-03-04T00:53:51.975Z,0
2017-03-04T00:54:52.021Z,0
2017-03-04T00:55:52.047Z,0
2017-03-04T00:56:52.044Z,0
2017-03-04T00:57:52.110Z,0
2017-03-04T00:58:52.138Z,0
2017-03-04T00:59:52.138Z,0
2017-03-04T01:00:52.169Z,0
2017-03-04T01:01:52.242Z,0
2017-03-04T01:02:52.247Z,0
2017-03-04T01:03:52.243Z,0
2017-03-04T01:04:52.277Z,0
2017-03-04T01:05:52.334Z,0
2017-03-04T01:06:52.353Z,0
2017-03-04T01:07:52.379Z,0
2017-03-04T01:08:52.409Z,0
2017-03-04T01:09:52.448Z,0
2017-03-04T01:10:52.431Z,0
2017-03-04T01:11:52.477Z,0
2017-03-04T01:12:52.488Z,0
2017-03-04T01:13:52.531Z,0
2017-03-04T01:14:52.543Z,0
2017-03-04T01:15:52.575Z,0
2017-03-04T01:16:52.603Z,0
2017-03-04T01:17:52.627Z,0
2017-03-04T01:18:52.698Z,0
2017-03-04T01:19:52.676Z,0
2017-03-04T01:20:52.737Z,0
2017-03-04T01:21:52.743Z,0
2017-03-04T01:22:52.772Z,0
2017-03-04T01:23:52.823Z,0
2017-03-04T01:24:52.819Z,0
2017-03-04T01:25:52.844Z,0
2017-03-04T01:26:52.885Z,0
2017-03-04T01:27:52.922Z,0
2017-03-04T01:28:52.942Z,0
2017-03-04T01:29:52.967Z,0
2017-03-04T01:30:52.996Z,0
2017-03-04T01:31:53.004Z,0
2017-03-04T01:32:53.043Z,0
2017-03-04T01:33:53.073Z,0
2017-03-04T01:34:53.103Z,0
2017-03-04T01:35:53.147Z,0
2017-03-04T01:36:53.166Z,0
2017-03-04T01:37:53.178Z,0
2017-03-04T01:38:53.231Z,0
2017-03-04T01:39:53.245Z,0
2017-03-04T01:40:53.285Z,0
2017-03-04T01:41:53.267Z,0
2017-03-04T01:42:53.288Z,0
2017-03-04T01:43:53.345Z,0
2017-03-04T01:44:53.363Z,0
2017-03-04T01:45:53.389Z,0
2017-03-04T01:46:53.426Z,0
2017-03-04T01:47:53.441Z,0
2017-03-04T01:48:53.501Z,0
2017-03-04T01:49:53.537Z,0
2017-03-04T01:50:53.522Z,0
2017-03-04T01:51:53.551Z,0
2017-03-04T01:52:53.580Z,0
2017-03-04T01:53:53.614Z,0
2017-03-04T01:54:53.636Z,0
2017-03-04T01:55:53.640Z,0
2017-03-04T01:56:53.669Z,0
2017-03-04T01:57:53.719Z,0
2017-03-04T01:58:53.745Z,0
2017-03-04T01:59:53.783Z,0
2017-03-04T02:00:53.881Z,0
2017-03-04T02:01:53.857Z,0
2017-03-04T02:02:53.835Z,0
2017-03-04T02:03:53.895Z,0
2017-03-04T02:04:53.911Z,0
2017-03-04T02:05:53.946Z,0
2017-03-04T02:06:53.973Z,0
2017-03-04T02:07:53.984Z,0
2017-03-04T02:08:54.017Z,0
2017-03-04T02:09:54.052Z,0
2017-03-04T02:10:54.066Z,0
2017-03-04T02:11:54.086Z,0
2017-03-04T02:12:54.111Z,0
2017-03-04T02:13:54.141Z,0
2017-03-04T02:14:54.176Z,0
2017-03-04T02:15:54.180Z,0
2017-03-04T02:16:54.253Z,0
2017-03-04T02:17:54.257Z,0
2017-03-04T02:18:54.290Z,0
2017-03-04T02:19:54.303Z,0
2017-03-04T02:20:54.349Z,0
2017-03-04T02:21:54.394Z,0
2017-03-04T02:22:54.395Z,0
2017-03-04T02:23:54.408Z,0
2017-03-04T02:24:54.431Z,0
2017-03-04T02:25:54.461Z,0
2017-03-04T02:26:54.512Z,0
2017-03-04T02:27:54.534Z,0
2017-03-04T02:28:54.547Z,0
2017-03-04T02:29:54.579Z,0
2017-03-04T02:30:54.594Z,0
2017-03-04T02:31:54.621Z,0
2017-03-04T02:32:54.661Z,0
2017-03-04T02:33:54.775Z,0
2017-03-04T02:34:54.711Z,0
2017-03-04T02:35:54.737Z,0
2017-03-04T02:36:54.766Z,0
2017-03-04T02:37:54.822Z,0
2017-03-04T02:38:54.827Z,0
2017-03-04T02:39:54.865Z,0
2017-03-04T02:40:54.894Z,0
2017-03-04T02:41:54.893Z,0
2017-03-04T02:42:54.931Z,0
2017-03-04T02:43:54.928Z,0
2017-03-04T02:44:54.971Z,0
2017-03-04T02:45:55.045Z,0
2017-03-04T02:46:55.038Z,0
2017-03-04T02:47:55.066Z,0
2017-03-04T02:48:55.067Z,0
2017-03-04T02:49:55.125Z,0
2017-03-04T02:50:55.150Z,0
2017-03-04T02:51:55.173Z,0
2017-03-04T02:52:55.196Z,0
2017-03-04T02:53:55.198Z,0
2017-03-04T02:54:55.240Z,0
2017-03-04T02:55:55.275Z,0
2017-03-04T02:56:55.328Z,0
2017-03-04T02:57:55.350Z,0
2017-03-04T02:58:55.337Z,0
2017-03-04T02:59:55.373Z,0
2017-03-04T03:00:55.378Z,0
2017-03-04T03:01:55.442Z,0
2017-03-04T03:02:55.471Z,0
2017-03-04T03:03:55.499Z,0
2017-03-04T03:04:55.479Z,0
2017-03-04T03:05:55.529Z,0
2017-03-04T03:06:55.540Z,0
2017-03-04T03:07:55.582Z,0
2017-03-04T03:08:55.608Z,0
2017-03-04T03:09:55.643Z,0
2017-03-04T03:10:55.677Z,0
2017-03-04T03:11:55.701Z,0
2017-03-04T03:12:55.746Z,0
2017-03-04T03:13:55.777Z,0
2017-03-04T03:14:55.784Z,0
2017-03-04T03:15:55.807Z,0
2017-03-04T03:16:55.812Z,0
2017-03-04T03:17:55.871Z,0
2017-03-04T03:18:55.905Z,0
2017-03-04T03:19:55.919Z,0
2017-03-04T03:20:55.948Z,0
2017-03-04T03:21:55.942Z,0
2017-03-04T03:22:55.982Z,0
2017-03-04T03:23:56.028Z,0
2017-03-04T03:24:56.046Z,0
2017-03-04T03:25:56.063Z,0
2017-03-04T03:26:56.094Z,0
2017-03-04T03:27:56.129Z,0
2017-03-04T03:28:56.146Z,0
2017-03-04T03:29:56.175Z,0
2017-03-04T03:30:56.198Z,0
2017-03-04T03:31:56.207Z,0
2017-03-04T03:32:56.267Z,0
2017-03-04T03:33:56.302Z,0
2017-03-04T03:34:56.328Z,0
2017-03-04T03:35:56.333Z,0
2017-03-04T03:36:56.358Z,0
2017-03-04T03:37:56.459Z,0
2017-03-04T03:38:56.418Z,0
2017-03-04T03:39:56.446Z,0
2017-03-04T03:40:56.451Z,0
2017-03-04T03:41:56.492Z,0
2017-03-04T03:42:56.543Z,0
2017-03-04T03:43:56.761Z,0
2017-03-04T03:44:56.596Z,0
2017-03-04T03:45:56.592Z,0
2017-03-04T03:46:56.613Z,0
2017-03-04T03:47:56.659Z,0
2017-03-04T03:48:56.740Z,0
2017-03-04T03:49:56.715Z,0
2017-03-04T03:50:56.749Z,0
2017-03-04T03:51:56.751Z,0
2017-03-04T03:52:56.799Z,0
2017-03-04T03:53:56.814Z,0
2017-03-04T03:54:58.018Z,0
2017-03-04T03:55:56.867Z,0
2017-03-04T03:56:56.893Z,0
2017-03-04T03:57:56.930Z,0
2017-03-04T03:58:56.944Z,0
2017-03-04T03:59:57.131Z,0
2017-03-04T04:00:56.999Z,0
2017-03-04T04:01:57.023Z,0
2017-03-04T04:02:57.061Z,0
2017-03-04T04:03:57.086Z,0
2017-03-04T04:04:58.183Z,0
2017-03-04T04:05:57.098Z,0
2017-03-04T04:06:57.158Z,0
2017-03-04T04:07:57.183Z,0
2017-03-04T04:08:57.220Z,0
2017-03-04T04:09:57.269Z,0
2017-03-04T04:10:57.260Z,0
2017-03-04T04:11:57.315Z,0
2017-03-04T04:12:57.327Z,0
2017-03-04T04:13:57.383Z,0
2017-03-04T04:14:57.372Z,0
2017-03-04T04:15:57.395Z,0
2017-03-04T04:16:57.438Z,0
2017-03-04T04:17:57.471Z,0
2017-03-04T04:18:57.478Z,0
2017-03-04T04:19:57.507Z,0
2017-03-04T04:20:57.528Z,0
2017-03-04T04:21:57.562Z,0
2017-03-04T04:22:57.599Z,0
2017-03-04T04:23:57.594Z,0
2017-03-04T04:24:57.643Z,0
2017-03-04T04:25:57.654Z,0
2017-03-04T04:26:57.692Z,0
2017-03-04T04:27:57.749Z,0
2017-03-04T04:28:57.745Z,0
2017-03-04T04:29:57.751Z,0
2017-03-04T04:30:57.869Z,0
2017-03-04T04:31:57.827Z,0
2017-03-04T04:32:57.852Z,0
2017-03-04T04:33:57.865Z,0
2017-03-04T04:34:57.910Z,0
2017-03-04T04:35:57.929Z,0
2017-03-04T04:36:57.969Z,0
2017-03-04T04:37:57.988Z,0
2017-03-04T04:38:58.015Z,0
2017-03-04T04:39:58.029Z,0
2017-03-04T04:41:07.528Z,0
2017-03-04T04:41:58.436Z,0
2017-03-04T04:42:58.465Z,0
2017-03-04T04:43:58.471Z,0
2017-03-04T04:44:58.514Z,0
2017-03-04T04:45:58.528Z,0
2017-03-04T04:46:58.558Z,0
2017-03-04T04:47:58.604Z,0
2017-03-04T04:48:58.626Z,0
2017-03-04T04:49:58.637Z,0
2017-03-04T04:50:58.670Z,0
2017-03-04T04:51:58.671Z,0
2017-03-04T04:52:58.732Z,0
2017-03-04T04:53:58.735Z,0
2017-03-04T04:54:58.791Z,0
2017-03-04T04:55:58.804Z,0
2017-03-04T04:56:58.836Z,0
2017-03-04T04:57:58.854Z,0
2017-03-04T04:58:58.869Z,0
2017-03-04T04:59:58.907Z,0
2017-03-04T05:00:58.930Z,0
2017-03-04T05:01:58.970Z,0
2017-03-04T05:02:58.983Z,0
2017-03-04T05:03:59.030Z,0
2017-03-04T05:04:59.042Z,0
2017-03-04T05:05:59.079Z,0
2017-03-04T05:06:59.099Z,0
2017-03-04T05:07:59.106Z,0
2017-03-04T05:08:59.167Z,0
2017-03-04T05:09:59.171Z,0
2017-03-04T05:10:59.207Z,0
2017-03-04T05:11:59.235Z,0
2017-03-04T05:12:59.232Z,0
2017-03-04T05:13:59.289Z,0
2017-03-04T05:14:59.281Z,0
2017-03-04T05:15:59.339Z,0
2017-03-04T05:16:59.360Z,0
2017-03-04T05:17:59.369Z,0
2017-03-04T05:18:59.412Z,0
2017-03-04T05:19:59.429Z,0
2017-03-04T05:20:59.456Z,0
2017-03-04T05:21:59.508Z,0
2017-03-04T05:22:59.494Z,0
2017-03-04T05:23:59.549Z,4
2017-03-04T05:24:59.574Z,4
2017-03-04T05:25:59.606Z,0
2017-03-04T05:26:59.604Z,4
2017-03-04T05:27:59.730Z,4
2017-03-04T05:28:59.671Z,8
2017-03-04T05:29:59.699Z,4
2017-03-04T05:30:59.729Z,8
2017-03-04T05:31:59.771Z,8
2017-03-04T05:32:59.770Z,8
2017-03-04T05:33:59.830Z,12
2017-03-04T05:34:59.830Z,16
2017-03-04T05:35:59.845Z,16
2017-03-04T05:36:59.897Z,20
2017-03-04T05:37:59.896Z,20
2017-03-04T05:38:59.941Z,20
2017-03-04T05:39:59.962Z,24
2017-03-04T05:41:00.001Z,28
2017-03-04T05:42:00.003Z,32
2017-03-04T05:43:00.034Z,36
2017-03-04T05:44:00.072Z,40
2017-03-04T05:45:00.112Z,44
2017-03-04T05:46:00.131Z,48
2017-03-04T05:47:00.148Z,48
2017-03-04T05:48:00.166Z,56
2017-03-04T05:49:00.205Z,56
2017-03-04T05:50:00.229Z,64
2017-03-04T05:51:00.237Z,72
2017-03-04T05:52:00.249Z,76
2017-03-04T05:53:00.307Z,88
2017-03-04T05:54:00.345Z,96
2017-03-04T05:55:00.347Z,104
2017-03-04T05:56:00.370Z,116
2017-03-04T05:57:00.362Z,128
2017-03-04T05:58:00.434Z,144
2017-03-04T05:59:00.470Z,156
2017-03-04T06:00:00.497Z,172
2017-03-04T06:01:00.484Z,188
2017-03-04T06:02:00.544Z,204
2017-03-04T06:03:00.570Z,224
2017-03-04T06:04:00.601Z,244
2017-03-04T06:05:00.616Z,268
2017-03-04T06:06:00.669Z,288
2017-03-04T06:07:00.697Z,312
2017-03-04T06:08:00.772Z,336
2017-03-04T06:09:00.730Z,360
2017-03-04T06:10:00.756Z,380
2017-03-04T06:11:00.772Z,408
2017-03-04T06:12:00.829Z,432
2017-03-04T06:13:00.824Z,456
2017-03-04T06:14:00.835Z,484
2017-03-04T06:15:00.873Z,508
2017-03-04T06:16:00.930Z,544
2017-03-04T06:17:00.935Z,580
2017-03-04T06:18:00.971Z,612
2017-03-04T06:19:00.986Z,648
2017-03-04T06:20:01.010Z,688
2017-03-04T06:21:01.044Z,728
2017-03-04T06:22:01.057Z,756
2017-03-04T06:23:01.107Z,796
2017-03-04T06:24:01.111Z,836
2017-03-04T06:25:01.138Z,872
2017-03-04T06:26:01.162Z,896
2017-03-04T06:27:01.182Z,924
2017-03-04T06:28:01.218Z,960
2017-03-04T06:29:01.242Z,1004
2017-03-04T06:30:01.283Z,1048
2017-03-04T06:31:01.308Z,1084
2017-03-04T06:32:01.335Z,1124
2017-03-04T06:33:01.366Z,1160
2017-03-04T06:34:01.354Z,1200
2017-03-04T06:35:01.408Z,1236
2017-03-04T06:36:01.428Z,1272
2017-03-04T06:37:01.489Z,1316
2017-03-04T06:38:01.501Z,1360
2017-03-04T06:39:01.516Z,1412
2017-03-04T06:40:01.614Z,1472
2017-03-04T06:41:01.565Z,1520
2017-03-04T06:42:01.583Z,1576
2017-03-04T06:43:01.621Z,1624
2017-03-04T06:44:01.652Z,1696
2017-03-04T06:45:01.687Z,1764
2017-03-04T06:46:01.701Z,1828
2017-03-04T06:47:01.763Z,1880
2017-03-04T06:48:01.756Z,1924
2017-03-04T06:49:01.765Z,1960
2017-03-04T06:50:01.800Z,1988
2017-03-04T06:51:02.419Z,2024
2017-03-04T06:52:02.448Z,2072
2017-03-04T06:53:02.482Z,2120
2017-03-04T06:54:02.521Z,2176
2017-03-04T06:55:02.582Z,2236
2017-03-04T06:56:02.573Z,2296
2017-03-04T06:57:02.615Z,2348
2017-03-04T06:58:02.639Z,2404
2017-03-04T06:59:02.688Z,2464
2017-03-04T07:00:02.673Z,2520
2017-03-04T07:01:02.712Z,2572
2017-03-04T07:02:02.948Z,2624
2017-03-04T07:03:02.758Z,2676
2017-03-04T07:04:02.805Z,2716
2017-03-04T07:05:02.872Z,2756
2017-03-04T07:06:02.832Z,2788
2017-03-04T07:07:02.860Z,2812
2017-03-04T07:08:02.886Z,2844
2017-03-04T07:09:02.921Z,2884
2017-03-04T07:10:03.121Z,2936
2017-03-04T07:11:02.997Z,2976
2017-03-04T07:12:03.025Z,3036
2017-03-04T07:13:03.045Z,3104
2017-03-04T07:14:03.038Z,3172
2017-03-04T07:15:03.094Z,3224
2017-03-04T07:16:03.117Z,3276
2017-03-04T07:17:03.169Z,3336
2017-03-04T07:18:03.173Z,3400
2017-03-04T07:19:03.279Z,3480
2017-03-04T07:20:03.237Z,3556
2017-03-04T07:21:03.271Z,3620
2017-03-04T07:22:03.267Z,3688
2017-03-04T07:23:03.303Z,3732
2017-03-04T07:24:03.361Z,3764
2017-03-04T07:25:03.424Z,3804
2017-03-04T07:26:03.519Z,3836
2017-03-04T07:27:03.465Z,3872
2017-03-04T07:28:03.415Z,3912
2017-03-04T07:29:03.516Z,3944
2017-03-04T07:30:03.569Z,3972
2017-03-04T07:31:03.570Z,3988
2017-03-04T07:32:03.573Z,4028
2017-03-04T07:33:03.593Z,4076
2017-03-04T07:34:03.627Z,4120
2017-03-04T07:35:03.623Z,4176
2017-03-04T07:36:03.695Z,4236
2017-03-04T07:37:03.773Z,4316
2017-03-04T07:38:03.722Z,4392
2017-03-04T07:39:03.765Z,4504
2017-03-04T07:40:03.778Z,4592
2017-03-04T07:41:03.823Z,4648
2017-03-04T07:42:03.844Z,4684
2017-03-04T07:43:03.878Z,4716
2017-03-04T07:44:03.902Z,4884
2017-03-04T07:45:03.968Z,5076
2017-03-04T07:46:03.988Z,5112
2017-03-04T07:47:03.997Z,5220
2017-03-04T07:48:04.022Z,5288
2017-03-04T07:49:04.054Z,5292
2017-03-04T07:50:04.077Z,5280
2017-03-04T07:51:04.116Z,5316
2017-03-04T07:52:04.151Z,5392
2017-03-04T07:53:04.168Z,5604
2017-03-04T07:54:04.176Z,5676
2017-03-04T07:55:04.318Z,5784
2017-03-04T07:56:04.362Z,5840
2017-03-04T07:57:04.308Z,5840
2017-03-04T07:58:04.317Z,5808
2017-03-04T07:59:04.336Z,5900
2017-03-04T08:00:04.370Z,6024
2017-03-04T08:01:04.406Z,6092
2017-03-04T08:02:04.642Z,6272
2017-03-04T08:03:04.445Z,6340
2017-03-04T08:04:04.480Z,6512
2017-03-04T08:05:04.710Z,6440
2017-03-04T08:06:04.556Z,6528
2017-03-04T08:07:04.674Z,6532
2017-03-04T08:08:04.649Z,6608
2017-03-04T08:09:04.641Z,6724
2017-03-04T08:10:04.694Z,6704
2017-03-04T08:11:04.726Z,6796
2017-03-04T08:12:04.777Z,6540
2017-03-04T08:13:04.775Z,6524
2017-03-04T08:14:04.820Z,6604
2017-03-04T08:15:04.820Z,6748
2017-03-04T08:16:04.864Z,6844
2017-03-04T08:17:04.905Z,6836
2017-03-04T08:18:04.927Z,6888
2017-03-04T08:19:04.971Z,6988
2017-03-04T08:20:05.219Z,7128
2017-03-04T08:21:05.026Z,7328
2017-03-04T08:22:05.060Z,7604
2017-03-04T08:23:05.116Z,7260
2017-03-04T08:24:05.121Z,7308
2017-03-04T08:25:05.261Z,7424
2017-03-04T08:26:05.197Z,7496
2017-03-04T08:27:05.195Z,7552
2017-03-04T08:28:05.278Z,7572
2017-03-04T08:29:05.303Z,7868
2017-03-04T08:30:05.420Z,8124
2017-03-04T08:31:05.342Z,8340
2017-03-04T08:32:05.355Z,8616
2017-03-04T08:33:05.434Z,8812
2017-03-04T08:34:05.451Z,9184
2017-03-04T08:35:05.760Z,9340
2017-03-04T08:36:05.495Z,9384
2017-03-04T08:37:05.568Z,9308
2017-03-04T08:38:05.556Z,9188
2017-03-04T08:39:05.578Z,9024
2017-03-04T08:40:05.636Z,9260
2017-03-04T08:41:05.691Z,9552
2017-03-04T08:42:05.708Z,9424
2017-03-04T08:43:05.766Z,9248
2017-03-04T08:44:05.797Z,9616
2017-03-04T08:45:05.816Z,9772
2017-03-04T08:46:05.846Z,10052
2017-03-04T08:47:05.868Z,9052
2017-03-04T08:48:05.899Z,10048
2017-03-04T08:49:05.924Z,9160
2017-03-04T08:50:05.985Z,10508
2017-03-04T08:51:06.039Z,10820
2017-03-04T08:52:06.038Z,10544
2017-03-04T08:53:06.095Z,10404
2017-03-04T08:54:06.159Z,10140
2017-03-04T08:55:06.201Z,9588
2017-03-04T08:56:06.216Z,9832
2017-03-04T08:57:06.257Z,9856
2017-03-04T08:58:06.307Z,10016
2017-03-04T08:59:06.323Z,10092
2017-03-04T09:00:06.353Z,9868
2017-03-04T09:01:06.446Z,10652
2017-03-04T09:02:06.425Z,10644
2017-03-04T09:03:06.488Z,10396
2017-03-04T09:04:06.462Z,10448
2017-03-04T09:05:06.754Z,10204
2017-03-04T09:06:06.584Z,10340
2017-03-04T09:07:06.613Z,10844
2017-03-04T09:08:06.656Z,10504
2017-03-04T09:09:06.680Z,10784
2017-03-04T09:10:06.845Z,11060
2017-03-04T09:11:06.771Z,9960
2017-03-04T09:12:06.802Z,10564
2017-03-04T09:13:06.844Z,11276
2017-03-04T09:14:06.885Z,11480
2017-03-04T09:15:07.088Z,11648
2017-03-04T09:16:06.951Z,12204
2017-03-04T09:17:06.987Z,12792
2017-03-04T09:18:07.082Z,12600
2017-03-04T09:19:07.097Z,13112
2017-03-04T09:20:07.506Z,13696
2017-03-04T09:21:07.159Z,14432
2017-03-04T09:22:07.237Z,16128
2017-03-04T09:23:07.218Z,17984
2017-03-04T09:24:07.347Z,20960
2017-03-04T09:25:07.524Z,28288
2017-03-04T09:26:07.353Z,33312
2017-03-04T09:27:07.359Z,30880
2017-03-04T09:28:07.425Z,35712
2017-03-04T09:29:07.470Z,33824
2017-03-04T09:30:07.524Z,30752
2017-03-04T09:31:07.520Z,28992
2017-03-04T09:32:07.597Z,28512
2017-03-04T09:33:07.655Z,28768
2017-03-04T09:34:07.720Z,27776
2017-03-04T09:35:07.673Z,28256
2017-03-04T09:36:07.740Z,28800
2017-03-04T09:37:07.777Z,28160
2017-03-04T09:38:07.823Z,27296
2017-03-04T09:39:07.879Z,25152
2017-03-04T09:40:07.888Z,25280
2017-03-04T09:41:07.948Z,26848
2017-03-04T09:42:07.993Z,27104
2017-03-04T09:43:08.024Z,26816
2017-03-04T09:44:08.057Z,25760
2017-03-04T09:45:08.163Z,27744
2017-03-04T09:46:08.201Z,28864
2017-03-04T09:47:08.177Z,29056
2017-03-04T09:48:08.227Z,28800
2017-03-04T09:49:08.307Z,28800
2017-03-04T09:50:08.336Z,28864
2017-03-04T09:51:08.656Z,27808
2017-03-04T09:52:08.404Z,27648
2017-03-04T09:53:08.405Z,28800
2017-03-04T09:54:08.496Z,27840
2017-03-04T09:55:08.520Z,28192
2017-03-04T09:56:08.653Z,28160
2017-03-04T09:57:08.601Z,28576
2017-03-04T09:58:08.636Z,28992
2017-03-04T09:59:08.690Z,29632
2017-03-04T10:00:08.725Z,30304
2017-03-04T10:01:08.912Z,31584
2017-03-04T10:02:09.031Z,31584
2017-03-04T10:03:08.827Z,30784
2017-03-04T10:04:08.845Z,31008
2017-03-04T10:05:08.975Z,31328
2017-03-04T10:06:09.338Z,28992
2017-03-04T10:07:08.998Z,27616
2017-03-04T10:08:09.040Z,29120
2017-03-04T10:09:09.087Z,33664
2017-03-04T10:10:09.087Z,35392
2017-03-04T10:11:09.179Z,35648
2017-03-04T10:12:09.422Z,32320
2017-03-04T10:13:09.253Z,31488
2017-03-04T10:14:09.256Z,36192
2017-03-04T10:15:09.382Z,35392
2017-03-04T10:16:09.372Z,34304
2017-03-04T10:17:09.435Z,36640
2017-03-04T10:18:09.547Z,37248
2017-03-04T10:19:09.545Z,37792
2017-03-04T10:20:09.553Z,38240
2017-03-04T10:21:09.593Z,38496
2017-03-04T10:22:09.605Z,37408
2017-03-04T10:23:09.683Z,34624
2017-03-04T10:24:09.697Z,33888
2017-03-04T10:25:09.733Z,31200
2017-03-04T10:26:09.790Z,32928
2017-03-04T10:27:09.835Z,34464
2017-03-04T10:28:09.854Z,35424
2017-03-04T10:29:09.881Z,35840
2017-03-04T10:30:10.259Z,35968
2017-03-04T10:31:09.991Z,36384
2017-03-04T10:32:09.982Z,35552
2017-03-04T10:33:10.051Z,35072
2017-03-04T10:34:10.095Z,35808
2017-03-04T10:35:10.460Z,35008
2017-03-04T10:36:10.163Z,36416
2017-03-04T10:37:10.212Z,37184
2017-03-04T10:38:10.232Z,39072
2017-03-04T10:39:10.304Z,36544
2017-03-04T10:40:10.347Z,38592
2017-03-04T10:41:10.355Z,34176
2017-03-04T10:42:10.514Z,37280
2017-03-04T10:43:10.429Z,38176
2017-03-04T10:44:10.487Z,35008
2017-03-04T10:45:11.097Z,37280
2017-03-04T10:46:10.551Z,37664
2017-03-04T10:47:10.669Z,35840
2017-03-04T10:48:10.621Z,35232
2017-03-04T10:49:10.686Z,28192
2017-03-04T10:50:10.930Z,13568
2017-03-04T10:51:10.758Z,9044
2017-03-04T10:52:11.076Z,8060
2017-03-04T10:53:10.853Z,7460
2017-03-04T10:54:10.857Z,7128
2017-03-04T10:55:10.909Z,7052
2017-03-04T10:56:10.913Z,6972
2017-03-04T10:57:11.087Z,6820
2017-03-04T10:58:10.983Z,6452
2017-03-04T10:59:11.057Z,6176
2017-03-04T11:00:11.185Z,6140
2017-03-04T11:01:11.149Z,6296
2017-03-04T11:02:11.142Z,6032
2017-03-04T11:03:11.180Z,6196
2017-03-04T11:04:11.225Z,6084
2017-03-04T11:05:11.251Z,6112
2017-03-04T11:06:11.309Z,6132
2017-03-04T11:07:11.319Z,6200
2017-03-04T11:08:11.371Z,6220
2017-03-04T11:09:11.413Z,6268
2017-03-04T11:10:11.438Z,6020
2017-03-04T11:11:11.666Z,5612
2017-03-04T11:12:11.516Z,5744
2017-03-04T11:13:11.549Z,5756
2017-03-04T11:14:11.601Z,5540
2017-03-04T11:15:11.663Z,5456
2017-03-04T11:16:11.699Z,5296
2017-03-04T11:17:11.752Z,5304
2017-03-04T11:18:11.762Z,5224
2017-03-04T11:19:11.807Z,5332
2017-03-04T11:20:11.863Z,5300
2017-03-04T11:21:11.849Z,5352
2017-03-04T11:22:11.901Z,5328
2017-03-04T11:23:11.937Z,5276
2017-03-04T11:24:11.970Z,5224
2017-03-04T11:25:12.025Z,5160
2017-03-04T11:26:12.057Z,5096
2017-03-04T11:27:12.108Z,4956
2017-03-04T11:28:12.115Z,4848
2017-03-04T11:29:12.166Z,4940
2017-03-04T11:30:12.244Z,4952
2017-03-04T11:31:12.443Z,4880
2017-03-04T11:32:12.265Z,4776
2017-03-04T11:33:12.406Z,4400
2017-03-04T11:34:12.371Z,4428
2017-03-04T11:35:12.425Z,4392
2017-03-04T11:36:12.397Z,4528
2017-03-04T11:37:12.417Z,4560
2017-03-04T11:38:12.589Z,4704
2017-03-04T11:39:12.508Z,4720
2017-03-04T11:40:12.524Z,4464
2017-03-04T11:41:12.606Z,4544
2017-03-04T11:42:12.634Z,4560
2017-03-04T11:43:12.754Z,4608
2017-03-04T11:44:12.697Z,4672
2017-03-04T11:45:12.714Z,4640
2017-03-04T11:46:12.758Z,4592
2017-03-04T11:47:12.825Z,4520
2017-03-04T11:48:12.941Z,4476
2017-03-04T11:49:12.890Z,4672
2017-03-04T11:50:12.951Z,4680
2017-03-04T11:51:12.947Z,4700
2017-03-04T11:52:12.981Z,4672
2017-03-04T11:53:13.020Z,4712
2017-03-04T11:54:13.104Z,4532
2017-03-04T11:55:13.100Z,4388
2017-03-04T11:56:13.105Z,4336
2017-03-04T11:57:13.184Z,4376
2017-03-04T11:58:13.189Z,4360
2017-03-04T11:59:13.259Z,4376
2017-03-04T12:00:13.457Z,4396
2017-03-04T12:01:13.310Z,4384
2017-03-04T12:02:13.307Z,4324
2017-03-04T12:03:13.413Z,4304
2017-03-04T12:04:13.408Z,4232
2017-03-04T12:05:13.457Z,4132
2017-03-04T12:06:13.499Z,4020
2017-03-04T12:07:13.534Z,4056
2017-03-04T12:08:13.560Z,4040
2017-03-04T12:09:13.599Z,3960
2017-03-04T12:10:13.592Z,3908
2017-03-04T12:11:13.653Z,3900
2017-03-04T12:12:13.703Z,3792
2017-03-04T12:13:13.733Z,3628
2017-03-04T12:14:13.793Z,3524
2017-03-04T12:15:13.818Z,3432
2017-03-04T12:16:13.856Z,3352
2017-03-04T12:17:13.891Z,3348
2017-03-04T12:18:13.921Z,3328
2017-03-04T12:19:13.964Z,3300
2017-03-04T12:20:14.017Z,3268
2017-03-04T12:21:14.037Z,3244
2017-03-04T12:22:14.086Z,3236
2017-03-04T12:23:14.091Z,3224
2017-03-04T12:24:14.232Z,3200
2017-03-04T12:25:14.160Z,3200
2017-03-04T12:26:14.181Z,3200
2017-03-04T12:27:14.247Z,3196
2017-03-04T12:28:14.289Z,3192
2017-03-04T12:29:14.399Z,3180
2017-03-04T12:30:14.351Z,3164
2017-03-04T12:31:14.373Z,3168
2017-03-04T12:32:14.430Z,3168
2017-03-04T12:33:14.437Z,3164
2017-03-04T12:34:14.598Z,3172
2017-03-04T12:35:14.520Z,3152
2017-03-04T12:36:14.543Z,3136
2017-03-04T12:37:14.590Z,3132
2017-03-04T12:38:14.584Z,3120
2017-03-04T12:39:14.759Z,3112
2017-03-04T12:40:14.701Z,3120
2017-03-04T12:41:14.721Z,3124
2017-03-04T12:42:14.761Z,3108
2017-03-04T12:43:14.800Z,3096
2017-03-04T12:44:14.858Z,3084
2017-03-04T12:45:14.913Z,3096
2017-03-04T12:46:14.906Z,3076
2017-03-04T12:47:14.908Z,3080
2017-03-04T12:48:14.971Z,3088
2017-03-04T12:49:15.023Z,3100
2017-03-04T12:50:15.060Z,3100
2017-03-04T12:51:15.070Z,3084
2017-03-04T12:52:15.116Z,3108
2017-03-04T12:53:15.116Z,3092
2017-03-04T12:54:15.210Z,3096
2017-03-04T12:55:15.197Z,3108
2017-03-04T12:56:15.271Z,3120
2017-03-04T12:57:15.298Z,3096
2017-03-04T12:58:15.295Z,3120
2017-03-04T12:59:15.371Z,3112
2017-03-04T13:00:15.390Z,3116
2017-03-04T13:01:15.433Z,3104
2017-03-04T13:02:15.456Z,3124
2017-03-04T13:03:15.502Z,3128
2017-03-04T13:04:15.513Z,3100
2017-03-04T13:05:15.533Z,3144
2017-03-04T13:06:15.585Z,3132
2017-03-04T13:07:15.604Z,3160
2017-03-04T13:08:15.771Z,3148
2017-03-04T13:09:15.702Z,3168
2017-03-04T13:10:15.761Z,3168
2017-03-04T13:11:15.786Z,3172
2017-03-04T13:12:15.816Z,3176
2017-03-04T13:13:16.064Z,3180
2017-03-04T13:14:15.949Z,3168
2017-03-04T13:15:15.932Z,3160
2017-03-04T13:16:15.966Z,3136
2017-03-04T13:17:15.985Z,3112
2017-03-04T13:18:16.000Z,3116
2017-03-04T13:19:16.078Z,3116
2017-03-04T13:20:16.243Z,3092
2017-03-04T13:21:16.132Z,3064
2017-03-04T13:22:16.151Z,3068
2017-03-04T13:23:16.199Z,3060
2017-03-04T13:24:16.218Z,3056
2017-03-04T13:25:16.410Z,3036
2017-03-04T13:26:16.310Z,3032
2017-03-04T13:27:16.334Z,3012
2017-03-04T13:28:16.382Z,3000
2017-03-04T13:29:16.405Z,2976
2017-03-04T13:30:16.602Z,2956
2017-03-04T13:31:16.460Z,2956
2017-03-04T13:32:16.526Z,2940
2017-03-04T13:33:16.591Z,2912
2017-03-04T13:34:16.569Z,2884
2017-03-04T13:35:16.609Z,2876
2017-03-04T13:36:16.647Z,2868
2017-03-04T13:37:16.688Z,2892
2017-03-04T13:38:16.709Z,2884
2017-03-04T13:39:16.741Z,2864
2017-03-04T13:40:16.773Z,2864
2017-03-04T13:41:16.801Z,2852
2017-03-04T13:42:16.880Z,2820
2017-03-04T13:43:16.878Z,2804
2017-03-04T13:44:16.895Z,2796
2017-03-04T13:45:16.969Z,2800
2017-03-04T13:46:17.024Z,2800
2017-03-04T13:47:17.059Z,2800
2017-03-04T13:48:17.073Z,2804
2017-03-04T13:49:17.134Z,2808
2017-03-04T13:50:17.140Z,2816
2017-03-04T13:51:17.158Z,2828